Time;durP1;ratioP1;P1;durP2;ratioP2;P2;SDS_P1;SDS_P2;PMS_P1;PMS_P2;Temp;Humidity;BMP_temperature;BMP_pressure;BME280_temperature;BME280_humidity;BME280_pressure;Samples;Min_cycle;Max_cycle;Signal;HPM_P1;HPM_P2
2021/01/16 00:02:01;;;;;;;9.88;7.80;;;16.60;99.90;;;;;;5074692;28;20059;-67
2021/01/16 00:04:27;;;;;;;10.05;7.90;;;16.60;99.90;;;;;;5074386;28;20074;-66
2021/01/16 00:06:53;;;;;;;9.90;7.90;;;16.50;99.90;;;;;;5074121;28;20063;-68
2021/01/16 00:09:19;;;;;;;8.57;7.28;;;16.50;99.90;;;;;;5074115;28;20029;-68
2021/01/16 00:11:47;;;;;;;9.75;7.70;;;16.50;99.90;;;;;;5090866;28;20040;-67
2021/01/16 00:14:12;;;;;;;10.77;8.07;;;16.50;99.90;;;;;;5094326;28;20027;-66
2021/01/16 00:16:38;;;;;;;9.48;7.60;;;16.50;99.90;;;;;;5094051;28;20028;-64
2021/01/16 00:19:03;;;;;;;9.40;7.68;;;16.40;99.90;;;;;;5094176;28;20403;-68
2021/01/16 00:21:29;;;;;;;8.13;7.18;;;16.40;99.90;;;;;;5094464;28;20078;-66
2021/01/16 00:23:55;;;;;;;9.65;7.35;;;16.40;99.90;;;;;;5092689;28;20031;-67
2021/01/16 00:26:20;;;;;;;9.68;7.68;;;16.30;99.90;;;;;;5094365;28;20074;-61
2021/01/16 00:28:46;;;;;;;9.82;7.55;;;16.30;99.90;;;;;;5091968;28;20471;-62
2021/01/16 00:31:11;;;;;;;10.80;7.20;;;16.30;99.90;;;;;;5073863;28;20104;-64
2021/01/16 00:33:37;;;;;;;9.15;7.30;;;16.30;99.90;;;;;;5073347;28;20408;-62
2021/01/16 00:36:05;;;;;;;11.07;7.63;;;16.20;99.90;;;;;;5073920;28;20024;-67
2021/01/16 00:38:37;;;;;;;14.82;7.93;;;16.30;99.90;;;;;;5073360;28;20125;-66
2021/01/16 00:41:03;;;;;;;8.10;6.95;;;16.20;99.90;;;;;;5073364;28;20474;-66
2021/01/16 00:43:29;;;;;;;8.23;6.90;;;16.20;99.90;;;;;;5073881;28;20096;-69
2021/01/16 00:45:55;;;;;;;9.70;7.50;;;16.20;99.90;;;;;;5073294;28;20028;-67
2021/01/16 00:48:22;;;;;;;8.40;7.47;;;16.20;99.90;;;;;;5073448;28;20028;-68
2021/01/16 00:50:49;;;;;;;9.68;7.65;;;16.20;99.90;;;;;;5073261;28;20032;-66
2021/01/16 00:53:15;;;;;;;10.90;7.72;;;16.10;99.90;;;;;;5073520;28;20024;-68
2021/01/16 00:55:41;;;;;;;10.43;7.55;;;16.10;99.90;;;;;;5073353;28;20123;-68
2021/01/16 00:58:14;;;;;;;9.13;7.78;;;16.00;99.90;;;;;;5073521;28;20028;-69
2021/01/16 01:00:42;;;;;;;8.27;6.88;;;16.00;99.90;;;;;;5072812;28;20028;-67
2021/01/16 01:03:08;;;;;;;11.32;7.65;;;16.00;99.90;;;;;;5073248;28;20477;-67
2021/01/16 01:05:35;;;;;;;9.77;7.30;;;16.00;99.90;;;;;;5072719;28;20462;-66
2021/01/16 01:08:00;;;;;;;9.50;7.70;;;16.00;99.90;;;;;;5073588;28;20031;-68
2021/01/16 01:10:32;;;;;;;10.10;7.78;;;16.00;99.90;;;;;;5080297;28;20028;-67
2021/01/16 01:12:58;;;;;;;10.80;8.13;;;15.90;99.90;;;;;;5093545;28;20425;-67
2021/01/16 01:15:24;;;;;;;8.80;7.72;;;16.00;99.90;;;;;;5093168;28;20060;-69
2021/01/16 01:18:00;;;;;;;9.65;7.80;;;15.90;99.90;;;;;;5092969;28;20499;-67
2021/01/16 01:20:26;;;;;;;9.98;7.95;;;16.00;99.90;;;;;;5093191;28;20410;-66
2021/01/16 01:22:54;;;;;;;9.63;8.02;;;15.90;99.90;;;;;;5092788;28;20506;-70
2021/01/16 01:25:20;;;;;;;11.07;7.90;;;15.90;99.90;;;;;;5093027;28;20020;-67
2021/01/16 01:27:51;;;;;;;10.15;7.95;;;15.90;99.90;;;;;;5092590;28;20414;-68
2021/01/16 01:30:18;;;;;;;8.52;7.40;;;15.90;99.90;;;;;;5076956;28;20045;-70
2021/01/16 01:32:44;;;;;;;11.57;8.30;;;15.90;99.90;;;;;;5072260;28;20025;-69
2021/01/16 01:35:10;;;;;;;11.27;8.25;;;15.80;99.90;;;;;;5072585;28;20400;-70
2021/01/16 01:37:43;;;;;;;9.55;8.15;;;15.90;99.90;;;;;;5072324;28;20035;-70
2021/01/16 01:40:11;;;;;;;8.87;7.97;;;15.80;99.90;;;;;;5072558;28;20028;-70
2021/01/16 01:42:37;;;;;;;9.40;8.02;;;15.80;99.90;;;;;;5072048;28;20271;-70
2021/01/16 01:45:08;;;;;;;10.38;7.88;;;15.80;99.90;;;;;;5070450;28;20070;-63
2021/01/16 01:47:35;;;;;;;9.75;8.63;;;15.80;99.90;;;;;;5072000;28;20483;-67
2021/01/16 01:50:02;;;;;;;9.68;7.70;;;15.80;99.90;;;;;;5072534;28;20097;-66
2021/01/16 01:52:28;;;;;;;10.48;8.15;;;15.70;99.90;;;;;;5072601;28;20460;-70
2021/01/16 01:54:55;;;;;;;8.55;7.53;;;15.70;99.90;;;;;;5071883;28;20464;-68
2021/01/16 01:57:24;;;;;;;11.32;8.18;;;15.70;99.90;;;;;;5072050;28;20104;-68
2021/01/16 01:59:52;;;;;;;9.20;7.90;;;15.70;99.90;;;;;;5071576;28;20032;-70
2021/01/16 02:02:20;;;;;;;9.52;8.25;;;15.70;99.90;;;;;;5071900;28;20025;-67
2021/01/16 02:04:47;;;;;;;10.30;8.00;;;15.70;99.90;;;;;;5071713;28;20089;-69
2021/01/16 02:07:27;;;;;;;10.15;8.32;;;15.60;99.90;;;;;;5072033;28;20047;-68
2021/01/16 02:09:54;;;;;;;9.02;8.13;;;15.60;99.90;;;;;;5074323;28;20448;-69
2021/01/16 02:12:21;;;;;;;9.13;8.10;;;15.60;99.90;;;;;;5092391;28;20036;-67
2021/01/16 02:14:55;;;;;;;9.38;7.85;;;15.60;99.90;;;;;;5092119;28;20104;-69
2021/01/16 02:17:25;;;;;;;10.70;8.35;;;15.60;99.90;;;;;;5092379;28;20042;-66
2021/01/16 02:20:06;;;;;;;10.07;8.60;;;15.50;99.90;;;;;;5091827;28;20024;-69
2021/01/16 02:22:53;;;;;;;9.55;7.50;;;15.60;99.90;;;;;;5092001;28;20028;-63
2021/01/16 02:25:33;;;;;;;10.50;8.77;;;15.50;99.90;;;;;;5091923;28;20020;-63
2021/01/16 02:28:04;;;;;;;10.75;7.90;;;15.50;99.90;;;;;;5092164;28;20134;-64
2021/01/16 02:30:31;;;;;;;10.82;8.95;;;15.50;99.90;;;;;;5072358;28;20072;-65
2021/01/16 02:32:58;;;;;;;10.07;8.18;;;15.50;99.90;;;;;;5071550;28;20020;-68
2021/01/16 02:35:24;;;;;;;9.57;8.18;;;15.50;99.90;;;;;;5071362;28;20103;-65
2021/01/16 02:38:22;;;;;;;10.95;8.65;;;15.50;99.90;;;;;;5071346;28;20020;-64
2021/01/16 02:40:52;;;;;;;9.43;8.05;;;15.50;99.90;;;;;;5071272;28;20020;-67
2021/01/16 02:43:35;;;;;;;10.25;8.82;;;15.50;99.90;;;;;;5071498;28;20031;-67
2021/01/16 02:46:35;;;;;;;9.63;7.95;;;15.40;99.90;;;;;;5072051;28;20093;-67
2021/01/16 02:49:07;;;;;;;11.40;8.38;;;15.50;99.90;;;;;;5059572;28;20542;-68
2021/01/16 02:52:21;;;;;;;10.77;8.77;;;15.40;99.90;;;;;;5071314;28;20384;-68
2021/01/16 02:54:47;;;;;;;10.18;8.55;;;15.40;99.90;;;;;;5066109;28;20040;-68
2021/01/16 02:57:14;;;;;;;9.45;8.23;;;15.40;99.90;;;;;;5071381;28;20476;-67
2021/01/16 02:59:42;;;;;;;9.60;8.10;;;15.40;99.90;;;;;;5070750;28;20032;-66
2021/01/16 03:02:09;;;;;;;10.43;7.85;;;15.40;99.90;;;;;;5071153;28;20040;-63
2021/01/16 03:04:36;;;;;;;11.32;8.52;;;15.40;99.90;;;;;;5070792;28;20492;-64
2021/01/16 03:07:04;;;;;;;11.48;8.10;;;15.40;99.90;;;;;;5071545;28;20500;-64
2021/01/16 03:09:31;;;;;;;10.35;8.38;;;15.40;99.90;;;;;;5071441;28;20037;-64
2021/01/16 03:11:58;;;;;;;11.13;8.05;;;15.40;99.90;;;;;;5091351;28;20408;-62
2021/01/16 03:14:26;;;;;;;9.77;8.13;;;15.40;99.90;;;;;;5091492;28;20020;-67
2021/01/16 03:17:06;;;;;;;9.73;8.35;;;15.30;99.90;;;;;;5087802;28;20040;-67
2021/01/16 03:19:33;;;;;;;10.75;8.23;;;15.30;99.90;;;;;;5071049;28;20021;-63
2021/01/16 03:22:00;;;;;;;9.65;8.30;;;15.30;99.90;;;;;;5071437;28;20032;-66
2021/01/16 03:24:27;;;;;;;10.98;8.45;;;15.30;99.90;;;;;;5071067;28;20017;-68
2021/01/16 03:26:53;;;;;;;11.43;8.30;;;15.30;99.90;;;;;;5070911;28;20392;-68
2021/01/16 03:29:18;;;;;;;9.25;8.15;;;15.30;99.90;;;;;;5070550;28;20033;-69
2021/01/16 03:31:44;;;;;;;10.63;7.93;;;15.20;99.90;;;;;;5070910;28;20387;-68
2021/01/16 03:34:09;;;;;;;10.82;8.43;;;15.30;99.90;;;;;;5070947;28;20477;-68
2021/01/16 03:36:35;;;;;;;10.85;7.80;;;15.20;99.90;;;;;;5070652;28;20021;-68
2021/01/16 03:39:01;;;;;;;10.85;8.43;;;15.20;99.90;;;;;;5070926;28;20032;-69
2021/01/16 03:41:26;;;;;;;12.40;8.82;;;15.20;99.90;;;;;;5070929;28;20077;-69
2021/01/16 03:43:52;;;;;;;10.02;8.20;;;15.20;99.90;;;;;;5070482;28;20025;-69
2021/01/16 03:46:17;;;;;;;9.05;7.97;;;15.20;99.90;;;;;;5070863;28;20028;-69
2021/01/16 03:48:43;;;;;;;10.80;8.43;;;15.10;99.90;;;;;;5070635;28;20446;-70
2021/01/16 03:51:09;;;;;;;11.55;8.20;;;15.20;99.90;;;;;;5070857;28;20040;-66
2021/01/16 03:53:34;;;;;;;8.95;7.43;;;15.20;99.90;;;;;;5070533;28;20031;-65
2021/01/16 03:56:00;;;;;;;10.88;8.10;;;15.20;99.90;;;;;;5071030;28;20431;-67
2021/01/16 03:58:25;;;;;;;10.15;7.90;;;15.10;99.90;;;;;;5070447;28;20031;-64
2021/01/16 04:00:51;;;;;;;11.05;8.18;;;15.10;99.90;;;;;;5070351;28;20037;-65
2021/01/16 04:03:16;;;;;;;8.95;7.82;;;15.10;99.90;;;;;;5070456;28;20043;-65
2021/01/16 04:05:42;;;;;;;11.70;7.70;;;15.00;99.90;;;;;;5070259;28;20078;-64
2021/01/16 04:08:08;;;;;;;10.77;7.57;;;15.00;99.90;;;;;;5073372;28;20108;-69
2021/01/16 04:10:33;;;;;;;9.82;7.55;;;15.10;99.90;;;;;;5082236;28;20024;-66
2021/01/16 04:12:59;;;;;;;9.68;7.63;;;15.00;99.90;;;;;;5094802;28;20021;-66
2021/01/16 04:15:24;;;;;;;9.18;7.35;;;15.00;99.90;;;;;;5094426;28;20039;-66
2021/01/16 04:17:50;;;;;;;10.23;7.75;;;15.00;99.90;;;;;;5094212;28;20024;-67
2021/01/16 04:20:16;;;;;;;8.93;7.00;;;15.00;99.90;;;;;;5094386;28;20047;-67
2021/01/16 04:22:41;;;;;;;9.30;7.45;;;15.00;99.90;;;;;;5094211;28;20016;-67
2021/01/16 04:25:07;;;;;;;10.60;7.55;;;15.00;99.90;;;;;;5094206;28;20027;-67
2021/01/16 04:27:33;;;;;;;11.32;7.53;;;14.90;99.90;;;;;;5094088;28;20020;-67
2021/01/16 04:30:00;;;;;;;9.32;7.72;;;14.90;99.90;;;;;;5077375;28;20177;-67
2021/01/16 04:32:26;;;;;;;10.07;7.53;;;14.90;99.90;;;;;;5073878;28;20106;-63
2021/01/16 04:34:53;;;;;;;10.30;8.32;;;14.90;99.90;;;;;;5073590;28;20032;-65
2021/01/16 04:37:18;;;;;;;9.32;7.30;;;14.90;99.90;;;;;;5073860;28;20025;-65
2021/01/16 04:39:44;;;;;;;8.55;7.63;;;14.90;99.90;;;;;;5073488;28;20040;-66
2021/01/16 04:42:12;;;;;;;9.52;7.28;;;14.90;99.90;;;;;;5073808;28;20481;-67
2021/01/16 04:44:43;;;;;;;9.98;7.93;;;14.80;99.90;;;;;;5073478;28;20423;-66
2021/01/16 04:47:13;;;;;;;8.68;7.38;;;14.80;99.90;;;;;;5073687;28;20025;-67
2021/01/16 04:49:39;;;;;;;8.45;6.97;;;14.80;99.90;;;;;;5073343;28;20036;-68
2021/01/16 04:52:07;;;;;;;8.75;7.13;;;14.80;99.90;;;;;;5073498;28;20020;-67
2021/01/16 04:54:34;;;;;;;8.80;7.20;;;14.80;99.90;;;;;;5073158;28;20025;-61
2021/01/16 04:56:59;;;;;;;9.75;7.80;;;14.70;99.90;;;;;;5073668;28;20025;-65
2021/01/16 04:59:25;;;;;;;8.20;6.78;;;14.80;99.90;;;;;;5072823;28;20023;-66
2021/01/16 05:01:51;;;;;;;7.78;6.85;;;14.70;99.90;;;;;;5073043;28;20040;-64
2021/01/16 05:04:23;;;;;;;7.60;6.72;;;14.70;99.90;;;;;;5073148;28;20540;-66
2021/01/16 05:06:51;;;;;;;8.85;7.05;;;14.70;99.90;;;;;;5072834;28;20028;-66
2021/01/16 05:09:18;;;;;;;8.52;7.20;;;14.70;99.90;;;;;;5072730;28;20032;-67
2021/01/16 05:12:01;;;;;;;10.52;8.07;;;14.70;99.90;;;;;;5090854;28;20119;-67
2021/01/16 05:14:42;;;;;;;8.63;7.13;;;14.70;99.90;;;;;;5093269;28;20091;-69
2021/01/16 05:17:08;;;;;;;8.27;7.28;;;14.70;99.90;;;;;;5093205;28;20534;-65
2021/01/16 05:19:35;;;;;;;8.63;7.15;;;14.70;99.90;;;;;;5091796;28;20032;-63
2021/01/16 05:22:02;;;;;;;7.93;6.90;;;14.70;99.90;;;;;;5093272;28;20510;-67
2021/01/16 05:24:28;;;;;;;7.95;7.15;;;14.60;99.90;;;;;;5093361;28;20024;-68
2021/01/16 05:26:53;;;;;;;8.05;7.20;;;14.60;99.90;;;;;;5092901;28;20024;-64
2021/01/16 05:29:21;;;;;;;9.68;7.15;;;14.60;99.90;;;;;;5079259;28;20090;-64
2021/01/16 05:31:48;;;;;;;9.10;7.07;;;14.60;99.90;;;;;;5072665;28;20033;-64
2021/01/16 05:34:15;;;;;;;7.93;6.97;;;14.60;99.90;;;;;;5072661;28;20085;-64
2021/01/16 05:36:47;;;;;;;9.45;7.15;;;14.50;99.90;;;;;;5072261;28;20028;-65
2021/01/16 05:39:13;;;;;;;8.73;7.15;;;14.50;99.90;;;;;;5072553;28;20020;-63
2021/01/16 05:41:41;;;;;;;8.15;6.85;;;14.50;99.90;;;;;;5072339;28;20025;-62
2021/01/16 05:44:08;;;;;;;10.25;7.15;;;14.50;99.90;;;;;;5072432;28;20024;-67
2021/01/16 05:46:35;;;;;;;8.63;7.10;;;14.40;99.90;;;;;;5071975;28;20116;-66
2021/01/16 05:49:02;;;;;;;8.45;6.97;;;14.50;99.90;;;;;;5072589;28;20028;-69
2021/01/16 05:51:29;;;;;;;8.40;7.50;;;14.50;99.90;;;;;;5072547;28;20032;-63
2021/01/16 05:53:56;;;;;;;8.10;7.15;;;14.40;99.90;;;;;;5071958;28;20052;-63
2021/01/16 05:56:23;;;;;;;9.27;7.00;;;14.40;99.90;;;;;;5072390;28;20067;-69
2021/01/16 05:58:51;;;;;;;7.57;6.78;;;14.40;99.90;;;;;;5071873;28;20064;-63
2021/01/16 06:01:24;;;;;;;8.80;7.38;;;14.40;99.90;;;;;;5071454;28;20055;-64
2021/01/16 06:03:55;;;;;;;9.30;6.93;;;14.40;99.90;;;;;;5071464;28;20059;-64
2021/01/16 06:06:22;;;;;;;8.75;7.40;;;14.30;99.90;;;;;;5072218;28;20112;-62
2021/01/16 06:08:55;;;;;;;7.95;6.95;;;14.30;99.90;;;;;;5071691;28;20021;-63
2021/01/16 06:11:21;;;;;;;9.02;7.25;;;14.30;99.90;;;;;;5072062;28;20093;-63
2021/01/16 06:13:48;;;;;;;9.63;7.07;;;14.30;99.90;;;;;;5071729;28;20029;-67
2021/01/16 06:16:18;;;;;;;9.85;7.22;;;14.30;99.90;;;;;;5072005;28;20368;-68
2021/01/16 06:18:51;;;;;;;8.10;6.85;;;14.30;99.90;;;;;;5071518;28;20016;-68
2021/01/16 06:21:28;;;;;;;9.07;6.70;;;14.30;99.90;;;;;;5071845;28;20028;-67
2021/01/16 06:23:58;;;;;;;8.70;7.18;;;14.30;99.90;;;;;;5071455;28;20430;-70
2021/01/16 06:26:26;;;;;;;9.20;6.93;;;14.20;99.90;;;;;;5071690;28;20021;-64
2021/01/16 06:29:00;;;;;;;8.27;6.78;;;14.20;99.90;;;;;;5070900;28;20040;-65
2021/01/16 06:31:27;;;;;;;9.27;7.43;;;14.20;99.90;;;;;;5071336;28;20037;-68
2021/01/16 06:34:01;;;;;;;9.27;7.22;;;14.20;99.90;;;;;;5071458;28;20121;-67
2021/01/16 06:36:29;;;;;;;11.48;7.38;;;14.20;99.90;;;;;;5071618;28;20028;-64
2021/01/16 06:38:58;;;;;;;11.45;7.18;;;14.20;99.90;;;;;;5071454;28;20063;-65
2021/01/16 06:41:35;;;;;;;8.38;6.90;;;14.20;99.90;;;;;;5071583;28;20028;-67
2021/01/16 06:44:01;;;;;;;9.18;6.97;;;14.20;99.90;;;;;;5071649;28;20033;-66
2021/01/16 06:46:45;;;;;;;8.82;7.20;;;14.10;99.90;;;;;;5071439;28;20024;-66
2021/01/16 06:49:27;;;;;;;8.48;6.55;;;14.20;99.90;;;;;;5071409;28;20358;-65
2021/01/16 06:52:04;;;;;;;9.30;6.57;;;14.20;99.90;;;;;;5071164;28;20508;-67
2021/01/16 06:54:34;;;;;;;11.57;6.55;;;14.20;99.90;;;;;;5071491;28;20028;-67
2021/01/16 06:57:11;;;;;;;7.00;5.15;;;14.20;99.90;;;;;;5071361;28;20031;-67
2021/01/16 06:59:41;;;;;;;6.40;4.63;;;14.30;99.90;;;;;;5071067;28;20032;-68
2021/01/16 07:02:30;;;;;;;8.93;4.45;;;14.40;99.90;;;;;;5068807;28;20112;-62
2021/01/16 07:05:01;;;;;;;5.85;4.75;;;14.40;99.90;;;;;;5059563;28;20028;-62
2021/01/16 07:07:38;;;;;;;7.00;4.90;;;14.50;99.90;;;;;;5071162;28;20013;-63
2021/01/16 07:10:14;;;;;;;6.18;3.88;;;14.50;99.90;;;;;;5070845;28;20040;-66
2021/01/16 07:12:52;;;;;;;9.02;5.03;;;14.60;99.90;;;;;;5070096;28;20032;-65
2021/01/16 07:15:20;;;;;;;8.00;5.03;;;14.70;99.90;;;;;;5070756;28;20504;-64
2021/01/16 07:17:47;;;;;;;6.47;4.43;;;14.70;99.90;;;;;;5070885;28;20461;-67
2021/01/16 07:20:13;;;;;;;6.03;4.57;;;14.70;99.90;;;;;;5070730;28;20033;-67
2021/01/16 07:22:41;;;;;;;5.93;4.03;;;14.80;99.90;;;;;;5070827;28;20498;-71
2021/01/16 07:25:09;;;;;;;10.50;4.00;;;14.80;99.90;;;;;;5071030;28;20032;-69
2021/01/16 07:27:35;;;;;;;6.00;4.25;;;14.80;99.90;;;;;;5070932;28;20384;-69
2021/01/16 07:30:05;;;;;;;6.18;4.05;;;14.90;99.90;;;;;;5071280;28;20040;-68
2021/01/16 07:32:49;;;;;;;5.70;4.20;;;14.90;99.90;;;;;;5071125;28;20019;-70
2021/01/16 07:35:16;;;;;;;7.88;4.40;;;14.90;99.90;;;;;;5070907;28;20064;-72
2021/01/16 07:37:43;;;;;;;5.85;4.60;;;14.90;99.90;;;;;;5070825;28;20082;-72
2021/01/16 07:40:23;;;;;;;6.70;4.88;;;14.90;99.90;;;;;;5070945;28;20024;-70
2021/01/16 07:42:50;;;;;;;5.78;3.90;;;14.90;99.90;;;;;;5073089;28;20055;-72
2021/01/16 07:45:41;;;;;;;5.93;3.95;;;14.90;99.90;;;;;;5074854;28;20423;-71
2021/01/16 07:48:07;;;;;;;7.88;4.43;;;14.90;99.90;;;;;;5073616;28;20162;-70
2021/01/16 07:50:37;;;;;;;6.80;5.22;;;15.00;99.90;;;;;;5073951;28;20119;-69
2021/01/16 07:53:07;;;;;;;6.32;4.97;;;15.00;99.90;;;;;;5074462;28;20039;-71
2021/01/16 07:55:36;;;;;;;6.93;4.57;;;15.00;99.90;;;;;;5074343;28;20035;-69
2021/01/16 07:58:31;;;;;;;7.72;5.32;;;15.00;99.90;;;;;;5074777;28;20043;-72
2021/01/16 08:01:15;;;;;;;7.32;5.25;;;15.00;99.90;;;;;;5074925;28;20025;-72
2021/01/16 08:04:13;;;;;;;7.82;5.38;;;14.90;99.90;;;;;;5074168;28;20500;-69
2021/01/16 08:07:09;;;;;;;7.63;4.68;;;14.90;99.90;;;;;;5064700;28;20044;-68
2021/01/16 08:09:51;;;;;;;8.80;5.50;;;14.90;99.90;;;;;;5067716;28;20072;-67
2021/01/16 08:12:20;;;;;;;5.90;4.97;;;14.90;99.90;;;;;;5080656;28;20074;-69
2021/01/16 08:14:46;;;;;;;6.55;4.70;;;14.90;99.90;;;;;;5088308;28;20036;-69
2021/01/16 08:17:34;;;;;;;6.45;5.22;;;14.90;99.90;;;;;;5094531;28;20028;-70
2021/01/16 08:20:00;;;;;;;6.82;5.55;;;14.90;99.90;;;;;;5086364;28;20127;-73
2021/01/16 08:22:51;;;;;;;6.47;5.07;;;14.90;99.90;;;;;;5078423;28;20099;-68
2021/01/16 08:25:22;;;;;;;6.53;4.82;;;14.90;99.90;;;;;;5072027;28;20056;-69
2021/01/16 08:27:50;;;;;;;8.98;6.07;;;14.90;99.90;;;;;;5082210;28;20029;-68
2021/01/16 08:30:21;;;;;;;8.10;5.50;;;14.90;99.90;;;;;;5093263;28;20066;-66
2021/01/16 08:32:59;;;;;;;6.43;5.13;;;14.90;99.90;;;;;;5093922;28;20043;-66
2021/01/16 08:35:26;;;;;;;7.57;5.20;;;14.90;99.90;;;;;;5084750;28;20039;-71
2021/01/16 08:37:52;;;;;;;6.68;4.47;;;14.90;99.90;;;;;;5085292;28;20375;-67
2021/01/16 08:41:02;;;;;;;10.68;5.10;;;14.90;99.90;;;;;;5083952;28;20024;-73
2021/01/16 08:43:36;;;;;;;8.60;5.43;;;15.00;99.90;;;;;;5043523;28;20033;-68
2021/01/16 08:46:14;;;;;;;;;;;15.00;99.90;;;;;;5064260;28;20488;-68
2021/01/16 08:48:41;;;;;;;9.90;5.32;;;15.00;99.90;;;;;;5072514;28;19917;-68
2021/01/16 08:51:33;;;;;;;9.27;5.53;;;15.00;99.90;;;;;;5073573;28;20086;-67
2021/01/16 08:54:25;;;;;;;8.65;5.45;;;15.00;99.90;;;;;;5072572;28;20369;-67
2021/01/16 08:57:00;;;;;;;8.75;5.82;;;15.00;99.90;;;;;;5068841;28;20035;-66
2021/01/16 08:59:33;;;;;;;8.35;5.72;;;15.00;99.90;;;;;;5071622;28;20056;-69
2021/01/16 09:02:12;;;;;;;8.70;5.80;;;15.00;99.90;;;;;;5071887;28;20112;-66
2021/01/16 09:04:42;;;;;;;6.72;5.35;;;14.90;99.90;;;;;;5071217;28;20036;-67
2021/01/16 09:07:17;;;;;;;7.70;5.80;;;15.00;99.90;;;;;;5071616;28;20028;-69
2021/01/16 09:09:56;;;;;;;8.55;6.20;;;14.90;99.90;;;;;;5071812;28;20079;-65
2021/01/16 09:12:36;;;;;;;9.80;5.88;;;14.90;99.90;;;;;;5072729;28;20244;-67
2021/01/16 09:15:19;;;;;;;7.10;4.97;;;14.90;99.90;;;;;;5073414;28;20077;-70
2021/01/16 09:18:03;;;;;;;9.95;6.35;;;14.90;99.90;;;;;;5073010;28;20024;-68
2021/01/16 09:20:29;;;;;;;9.27;6.03;;;14.90;99.90;;;;;;5073084;28;20506;-65
2021/01/16 09:22:55;;;;;;;8.27;5.95;;;14.90;99.90;;;;;;5066635;28;20036;-68
2021/01/16 09:25:24;;;;;;;7.57;6.03;;;14.90;99.90;;;;;;5071812;28;20996;-64
2021/01/16 09:27:51;;;;;;;10.43;6.28;;;14.90;99.90;;;;;;5072777;28;20024;-69
2021/01/16 09:30:20;;;;;;;7.55;5.85;;;14.90;99.90;;;;;;5072958;28;20423;-72
2021/01/16 09:32:45;;;;;;;8.13;5.90;;;14.90;99.90;;;;;;5072105;28;20373;-65
2021/01/16 09:35:11;;;;;;;9.07;6.75;;;14.90;99.90;;;;;;5072533;28;20146;-68
2021/01/16 09:37:38;;;;;;;11.50;6.65;;;14.90;99.90;;;;;;5072633;28;20043;-69
2021/01/16 09:40:08;;;;;;;9.90;6.75;;;14.90;99.90;;;;;;5072971;28;20024;-69
2021/01/16 09:42:48;;;;;;;11.13;7.35;;;14.90;99.90;;;;;;5072862;28;20025;-64
2021/01/16 09:45:16;;;;;;;9.38;6.88;;;14.90;99.90;;;;;;5072620;28;20385;-65
2021/01/16 09:47:47;;;;;;;12.18;7.18;;;14.90;99.90;;;;;;5072442;28;20024;-65
2021/01/16 09:50:15;;;;;;;9.48;7.10;;;14.80;99.90;;;;;;5071867;28;20480;-67
2021/01/16 09:52:45;;;;;;;9.10;6.40;;;14.80;99.90;;;;;;5068599;28;20528;-68
2021/01/16 09:55:31;;;;;;;8.43;6.57;;;14.80;99.90;;;;;;5072252;28;20538;-70
2021/01/16 09:57:59;;;;;;;12.25;6.72;;;14.80;99.90;;;;;;5073751;28;20480;-65
2021/01/16 10:00:25;;;;;;;8.85;6.22;;;14.80;99.90;;;;;;5072116;28;20031;-67
2021/01/16 10:03:01;;;;;;;8.77;6.20;;;14.70;99.90;;;;;;5071972;28;20032;-66
2021/01/16 10:05:28;;;;;;;11.27;7.30;;;14.70;99.90;;;;;;5072977;28;20036;-70
2021/01/16 10:07:54;;;;;;;8.65;6.85;;;14.70;99.90;;;;;;5071650;28;20060;-68
2021/01/16 10:10:20;;;;;;;8.80;6.70;;;14.70;99.90;;;;;;5071105;28;20033;-69
2021/01/16 10:12:47;;;;;;;9.95;6.90;;;14.70;99.90;;;;;;5071743;28;20030;-68
2021/01/16 10:15:20;;;;;;;9.48;7.32;;;14.60;99.90;;;;;;5072031;28;20032;-71
2021/01/16 10:17:46;;;;;;;9.63;7.32;;;14.60;99.90;;;;;;5071285;28;20104;-69
2021/01/16 10:20:16;;;;;;;10.55;7.78;;;14.60;99.90;;;;;;5071474;28;20028;-70
2021/01/16 10:22:45;;;;;;;10.98;7.72;;;14.50;99.90;;;;;;5071514;28;20062;-69
2021/01/16 10:25:12;;;;;;;10.38;8.43;;;14.50;99.90;;;;;;5071902;28;20025;-68
2021/01/16 10:27:50;;;;;;;11.50;8.32;;;14.50;99.90;;;;;;5071582;28;20025;-69
2021/01/16 10:30:21;;;;;;;11.43;7.97;;;14.50;99.90;;;;;;5071653;28;20067;-70
2021/01/16 10:32:48;;;;;;;13.27;8.88;;;14.50;99.90;;;;;;5070016;28;20445;-68
2021/01/16 10:35:26;;;;;;;13.27;8.30;;;14.40;99.90;;;;;;5071777;28;20029;-69
2021/01/16 10:37:54;;;;;;;11.52;8.55;;;14.40;99.90;;;;;;5071453;28;20719;-68
2021/01/16 10:40:22;;;;;;;11.50;8.60;;;14.40;99.90;;;;;;5071021;28;20030;-70
2021/01/16 10:42:52;;;;;;;11.43;8.48;;;14.40;99.90;;;;;;5071207;28;20020;-67
2021/01/16 10:45:19;;;;;;;14.13;9.50;;;14.30;99.90;;;;;;5071614;28;20025;-65
2021/01/16 10:47:46;;;;;;;10.98;8.85;;;14.30;99.90;;;;;;5070053;28;20020;-64
2021/01/16 10:50:27;;;;;;;13.63;9.18;;;14.20;99.90;;;;;;5071101;28;20037;-65
2021/01/16 10:53:04;;;;;;;13.65;9.50;;;14.20;99.90;;;;;;5071378;28;20021;-65
2021/01/16 10:55:55;;;;;;;12.75;9.77;;;14.20;99.90;;;;;;5071713;28;20016;-64
2021/01/16 10:58:30;;;;;;;12.13;8.82;;;14.20;99.90;;;;;;5071116;28;20797;-66
2021/01/16 11:00:58;;;;;;;11.68;8.57;;;14.20;99.80;;;;;;5071203;28;20473;-66
2021/01/16 11:03:29;;;;;;;11.77;8.55;;;14.20;99.90;;;;;;5071395;28;20384;-65
2021/01/16 11:05:56;;;;;;;11.77;8.88;;;14.30;99.80;;;;;;5070433;28;20035;-66
2021/01/16 11:08:31;;;;;;;10.52;8.32;;;14.30;99.50;;;;;;5071500;28;20024;-66
2021/01/16 11:10:57;;;;;;;11.27;9.07;;;14.30;99.20;;;;;;5071299;28;20047;-65
2021/01/16 11:13:25;;;;;;;12.27;8.18;;;14.30;99.20;;;;;;5070131;28;20361;-65
2021/01/16 11:15:53;;;;;;;12.45;8.20;;;14.30;99.20;;;;;;5069854;28;20024;-65
2021/01/16 11:18:30;;;;;;;11.05;7.75;;;14.30;99.30;;;;;;5074540;28;20024;-64
2021/01/16 11:21:01;;;;;;;11.32;8.13;;;14.40;99.20;;;;;;5074131;28;20111;-67
2021/01/16 11:23:31;;;;;;;11.38;7.65;;;14.40;99.30;;;;;;5074101;28;20028;-66
2021/01/16 11:25:57;;;;;;;10.00;7.57;;;14.40;99.40;;;;;;5074776;28;20070;-65
2021/01/16 11:28:27;;;;;;;8.98;7.00;;;14.40;99.50;;;;;;5074653;28;20027;-67
2021/01/16 11:31:07;;;;;;;10.02;7.38;;;14.40;99.50;;;;;;5073870;28;20055;-67
2021/01/16 11:33:33;;;;;;;9.20;6.78;;;14.40;99.60;;;;;;5074657;28;20043;-64
2021/01/16 11:36:02;;;;;;;9.35;6.55;;;14.40;99.90;;;;;;5074980;28;20020;-67
2021/01/16 11:38:39;;;;;;;11.55;7.55;;;14.50;99.80;;;;;;5075175;28;20063;-67
2021/01/16 11:41:06;;;;;;;7.88;6.20;;;14.50;99.90;;;;;;5074823;28;20384;-67
2021/01/16 11:43:32;;;;;;;8.85;6.70;;;14.50;99.90;;;;;;5074818;28;20024;-66
2021/01/16 11:46:09;;;;;;;7.95;6.80;;;14.60;99.90;;;;;;5075130;28;20523;-66
2021/01/16 11:48:36;;;;;;;8.10;6.30;;;14.60;99.90;;;;;;5074572;28;20146;-64
2021/01/16 11:51:13;;;;;;;7.40;6.07;;;14.60;99.90;;;;;;5074193;28;20534;-66
2021/01/16 11:53:46;;;;;;;8.75;5.90;;;14.60;99.90;;;;;;5076008;28;20038;-67
2021/01/16 11:56:14;;;;;;;8.77;6.20;;;14.70;99.90;;;;;;5075482;28;20025;-67
2021/01/16 11:58:41;;;;;;;9.63;6.25;;;14.70;99.80;;;;;;5074202;28;20103;-67
2021/01/16 12:01:07;;;;;;;7.43;5.75;;;14.70;99.70;;;;;;5074754;28;20103;-64
2021/01/16 12:03:33;;;;;;;7.75;6.40;;;14.70;99.90;;;;;;5074141;28;20444;-66
2021/01/16 12:06:10;;;;;;;7.57;6.00;;;14.80;99.60;;;;;;5062359;28;20031;-63
2021/01/16 12:08:37;;;;;;;7.78;6.20;;;14.80;99.60;;;;;;5091247;28;20043;-65
2021/01/16 12:11:09;;;;;;;8.35;5.65;;;14.80;99.60;;;;;;5074032;28;20087;-67
2021/01/16 12:13:34;;;;;;;10.23;6.35;;;14.80;99.60;;;;;;5074005;28;20048;-64
2021/01/16 12:16:00;;;;;;;7.68;5.70;;;14.90;99.60;;;;;;5074587;28;20477;-67
2021/01/16 12:18:27;;;;;;;7.75;6.30;;;14.90;99.60;;;;;;5074189;28;20024;-68
2021/01/16 12:20:53;;;;;;;7.63;5.35;;;14.90;99.50;;;;;;5072888;28;20536;-67
2021/01/16 12:23:21;;;;;;;7.07;5.63;;;15.00;99.50;;;;;;5073505;28;20086;-70
2021/01/16 12:25:59;;;;;;;6.32;5.63;;;15.00;99.40;;;;;;5063247;28;20532;-72
2021/01/16 12:28:33;;;;;;;5.60;5.00;;;15.10;99.40;;;;;;5071203;28;20384;-72
2021/01/16 12:31:02;;;;;;;7.15;5.38;;;15.10;99.50;;;;;;5074144;28;20158;-73
2021/01/16 12:33:28;;;;;;;6.55;5.20;;;15.20;99.60;;;;;;5076203;28;20052;-69
2021/01/16 12:35:54;;;;;;;7.03;5.25;;;15.20;99.60;;;;;;5073373;28;20393;-72
2021/01/16 12:38:19;;;;;;;7.03;5.15;;;15.30;99.60;;;;;;5073620;28;20024;-72
2021/01/16 12:40:45;;;;;;;8.15;4.78;;;15.30;99.60;;;;;;5073672;28;20020;-66
2021/01/16 12:43:11;;;;;;;6.03;5.15;;;15.30;99.40;;;;;;5073330;28;20468;-65
2021/01/16 12:45:38;;;;;;;5.50;4.57;;;15.40;99.60;;;;;;5073502;28;20086;-64
2021/01/16 12:48:05;;;;;;;6.40;4.97;;;15.40;99.20;;;;;;5073534;28;20466;-67
2021/01/16 12:50:31;;;;;;;5.57;4.75;;;15.40;99.20;;;;;;5073748;28;20033;-64
2021/01/16 12:52:57;;;;;;;5.88;4.60;;;15.50;99.10;;;;;;5073605;28;20042;-64
2021/01/16 12:55:24;;;;;;;6.55;5.40;;;15.50;99.00;;;;;;5072305;28;20036;-65
2021/01/16 12:57:52;;;;;;;5.53;4.53;;;15.60;99.10;;;;;;5073097;28;20534;-64
2021/01/16 13:00:28;;;;;;;6.05;5.32;;;15.60;99.10;;;;;;5073242;28;20067;-63